Terminal Aerodrome Forecast
Issued by NWS Rapid City, SD

Home | Current Version | Previous Version | Graphics & Text | Print | Product List | Glossary On
Versions: 1 2 3 4 5 6 7 8 9 10 11 12 13 14
000
FTUS43 KUNR 300830 AAB
TAFRAP
TAF AMD
KRAP 300830Z 3009/0106 01007KT P6SM OVC020
     FM301100 01014KT P6SM -SHRA OVC012
     FM301700 36018G28KT P6SM OVC015
     FM302300 02017KT P6SM BKN040 OVC080=

USA.gov is the U.S. government's official web portal to all federal, state and local government web resources and services.